Nebraska City, NE

8:58 PM CDT on March 30, 2017 (GMT -0500)
Nebraska City Municipal

Weather History for KAFK - January, 2014

Change the Weather History Date:

Monday, January 27, 2014

  Actual Average (KSDA) Record (KSDA)
Temperature  
Mean Temperature 6 °F -  
Max Temperature 12 °F 30 °F 66 °F (2002)
Min Temperature 1 °F 13 °F -15 °F (1963)
Degree Days  
Heating Degree Days 58    
Moisture  
Dew Point -11 °F    
Average Humidity 47    
Maximum Humidity 62    
Minimum Humidity 33    
Precipitation  
Precipitation 0.00 in - - ()
Sea Level Pressure  
Sea Level Pressure 30.43 in    
Wind  
Wind Speed 14 mph (NNW)    
Max Wind Speed 25 mph    
Max Gust Speed 38 mph    
Visibility 10 miles    
Events      
Averages and records for this station are not official NWS values.
T = Trace of Precipitation, MM = Missing Value Source: NWS Daily Summary

Daily Weather History Graph

Daily Weather History Graph

Search for Another Location

Airport or City:

Trip Planner

Search our weather history database for the weather conditions in past years. The results will help you decide how hot, cold, wet, or windy it might be!

Date:

Astronomy

Jan. 27, 2014 Rise Set
Actual Time 7:37 AM CST 5:35 PM CST
Civil Twilight 7:08 AM CST 6:04 PM CST
Nautical Twilight 6:35 AM CST 6:37 PM CST
Astronomical Twilight 6:03 AM CST 7:09 PM CST
Moon 4:20 AM CST (1/27) 2:22 PM CST (1/27)
Length of Visible Light 10h 56m
Length of Day
9h 57m
Waning Crescent, 14% of the Moon is Illuminated
Jan 27
Waning Crescent
Jan 30
New
Feb 6
First Quarter
Feb 14
Full
Feb 22
Last Quarter

Hourly Weather History & Observations

Time (CST) Temp. Windchill Dew Point Humidity Pressure Visibility Wind Dir Wind Speed Gust Speed Precip Events Conditions
12:15 AM 8.4 °F -12.5 °F -11.4 °F 40% 30.30 in 10.0 mi NNW 24.2 mph 38.0 mph N/A   Clear
12:35 AM 7.7 °F -13.9 °F -10.3 °F 44% 30.32 in 10.0 mi North 25.3 mph 32.2 mph N/A   Clear
12:55 AM 7.0 °F -14.0 °F -10.3 °F 45% 30.32 in 10.0 mi North 23.0 mph 32.2 mph N/A   Clear
1:15 AM 6.4 °F -13.3 °F -9.8 °F 48% 30.32 in 10.0 mi North 19.6 mph 26.5 mph N/A   Clear
1:35 AM 6.1 °F -13.3 °F -9.9 °F 48% 30.32 in 10.0 mi North 18.4 mph 25.3 mph N/A   Clear
1:55 AM 5.7 °F -13.8 °F -9.8 °F 49% 30.33 in 10.0 mi North 18.4 mph 25.3 mph N/A   Clear
2:15 AM 5.4 °F -15.7 °F -9.4 °F 51% 30.33 in 10.0 mi NNW 21.9 mph 25.3 mph N/A   Clear
2:35 AM 5.0 °F -13.6 °F -9.4 °F 52% 30.35 in 10.0 mi NNW 16.1 mph - N/A   Clear
2:55 AM 5.0 °F -13.6 °F -9.4 °F 52% 30.36 in 10.0 mi NNW 16.1 mph 24.2 mph N/A   Clear
3:15 AM 4.5 °F -14.9 °F -8.7 °F 55% 30.36 in 10.0 mi NNW 17.3 mph 23.0 mph N/A   Clear
3:35 AM 4.1 °F -14.1 °F -8.5 °F 56% 30.36 in 10.0 mi NNW 15.0 mph 23.0 mph N/A   Clear
3:55 AM 3.9 °F -14.3 °F -8.1 °F 57% 30.37 in 10.0 mi NNW 15.0 mph 20.7 mph N/A   Clear
4:15 AM 3.2 °F -13.1 °F -8.0 °F 60% 30.38 in 10.0 mi NNW 11.5 mph - N/A   Clear
4:35 AM 2.7 °F -12.9 °F -8.0 °F 61% 30.38 in 10.0 mi NW 10.4 mph - N/A   Clear
4:55 AM 3.2 °F -13.1 °F -7.8 °F 60% 30.39 in 10.0 mi NNW 11.5 mph 17.3 mph N/A   Clear
5:15 AM 3.2 °F -13.1 °F -7.6 °F 61% 30.40 in 10.0 mi NNW 11.5 mph 18.4 mph N/A   Clear
5:35 AM 3.0 °F -14.8 °F -7.8 °F 61% 30.40 in 10.0 mi NNW 13.8 mph - N/A   Clear
5:55 AM 2.7 °F -14.5 °F -7.8 °F 62% 30.41 in 10.0 mi NNW 12.7 mph - N/A   Clear
6:15 AM 2.3 °F -15.0 °F -8.7 °F 60% 30.41 in 10.0 mi NNW 12.7 mph 20.7 mph N/A   Clear
6:35 AM 2.1 °F -13.6 °F -9.4 °F 59% 30.43 in 10.0 mi NNW 10.4 mph - N/A   Clear
6:55 AM 1.9 °F -15.5 °F -10.3 °F 57% 30.43 in 10.0 mi NNW 12.7 mph - N/A   Clear
7:15 AM 1.4 °F -15.3 °F -10.5 °F 58% 30.44 in 10.0 mi NNW 11.5 mph - N/A   Clear
7:35 AM 1.2 °F -14.7 °F -10.3 °F 59% 30.45 in 10.0 mi NNW 10.4 mph - N/A   Clear
7:55 AM 1.4 °F -15.3 °F -10.3 °F 58% 30.46 in 10.0 mi NNW 11.5 mph - N/A   Clear
8:15 AM 1.8 °F -15.7 °F -9.9 °F 58% 30.46 in 10.0 mi NNW 12.7 mph - N/A   Clear
8:35 AM 2.3 °F -15.0 °F -9.4 °F 58% 30.46 in 10.0 mi North 12.7 mph - N/A   Clear
8:55 AM 3.2 °F -15.3 °F -9.2 °F 56% 30.46 in 10.0 mi NNW 15.0 mph 21.9 mph N/A   Clear
9:15 AM 3.7 °F -15.2 °F -8.9 °F 56% 30.46 in 10.0 mi NNW 16.1 mph 26.5 mph N/A   Clear
9:35 AM 4.1 °F -15.9 °F -9.4 °F 54% 30.46 in 10.0 mi NNW 18.4 mph 25.3 mph N/A   Clear
9:55 AM 5.0 °F -12.3 °F -9.0 °F 52% 30.47 in 10.0 mi NNW 13.8 mph - N/A   Clear
10:15 AM 5.9 °F -14.1 °F -8.9 °F 51% 30.48 in 10.0 mi North 19.6 mph 24.2 mph N/A   Clear
10:35 AM 6.6 °F -12.1 °F -10.1 °F 46% 30.49 in 10.0 mi NNW 17.3 mph 24.2 mph N/A   Clear
10:55 AM 7.0 °F -11.6 °F -10.3 °F 45% 30.48 in 10.0 mi North 17.3 mph - N/A   Clear
11:15 AM 7.9 °F -8.6 °F -10.3 °F 43% 30.48 in 10.0 mi North 13.8 mph 25.3 mph N/A   Clear
11:35 AM 8.2 °F -7.5 °F -10.3 °F 43% 30.48 in 10.0 mi North 12.7 mph 23.0 mph N/A   Clear
11:55 AM 9.0 °F -6.6 °F -9.9 °F 42% 30.48 in 10.0 mi NNW 12.7 mph 18.4 mph N/A   Clear
12:15 PM 9.5 °F -5.9 °F -10.5 °F 40% 30.48 in 10.0 mi NNW 12.7 mph 21.9 mph N/A   Clear
12:35 PM 10.0 °F -7.1 °F -10.7 °F 39% 30.46 in 10.0 mi NNW 16.1 mph 20.7 mph N/A   Clear
12:55 PM 10.9 °F -5.4 °F -10.7 °F 37% 30.46 in 10.0 mi NNW 15.0 mph 20.7 mph N/A   Clear
1:15 PM 11.1 °F -3.2 °F -11.2 °F 36% 30.45 in 10.0 mi North 11.5 mph 20.7 mph N/A   Clear
1:35 PM 11.3 °F -2.9 °F -11.2 °F 36% 30.44 in 10.0 mi NNW 11.5 mph 17.3 mph N/A   Clear
1:55 PM 11.7 °F -1.7 °F -10.7 °F 36% 30.43 in 10.0 mi North 10.4 mph 16.1 mph N/A   Clear
2:15 PM 11.8 °F -0.7 °F -11.6 °F 34% 30.43 in 10.0 mi NNW 9.2 mph 19.6 mph N/A   Clear
2:35 PM 12.0 °F -0.4 °F -11.9 °F 34% 30.43 in 10.0 mi NNW 9.2 mph - N/A   Clear
2:55 PM 12.4 °F 0.9 °F -11.6 °F 34% 30.43 in 10.0 mi North 8.1 mph - N/A   Clear
3:15 PM 12.2 °F -0.2 °F -11.6 °F 34% 30.43 in 10.0 mi NNW 9.2 mph - N/A   Clear
3:35 PM 12.4 °F -1.6 °F -11.6 °F 34% 30.43 in 10.0 mi NNW 11.5 mph - N/A   Clear
3:55 PM 12.2 °F -1.8 °F -12.1 °F 33% 30.43 in 10.0 mi North 11.5 mph - N/A   Clear
4:15 PM 12.0 °F -1.3 °F -12.3 °F 33% 30.43 in 10.0 mi North 10.4 mph - N/A   Clear
4:35 PM 11.7 °F -2.5 °F -12.1 °F 34% 30.44 in 10.0 mi NNW 11.5 mph - N/A   Clear
4:55 PM 11.1 °F 1.7 °F -11.9 °F 35% 30.44 in 10.0 mi NNW 5.8 mph - N/A   Clear
5:15 PM 9.9 °F 0.2 °F -12.3 °F 36% 30.44 in 10.0 mi North 5.8 mph - N/A   Clear
5:35 PM 8.6 °F -1.3 °F -12.3 °F 38% 30.44 in 10.0 mi NNW 5.8 mph - N/A   Clear
5:55 PM 7.5 °F -1.1 °F -12.3 °F 40% 30.45 in 10.0 mi NNW 4.6 mph - N/A   Clear
6:15 PM 7.5 °F -1.1 °F -12.3 °F 40% 30.46 in 10.0 mi NNW 4.6 mph - N/A   Clear
6:35 PM 7.3 °F 0.5 °F -12.6 °F 40% 30.46 in 10.0 mi NNW 3.5 mph - N/A   Clear
6:55 PM 5.9 °F -1.1 °F -12.1 °F 44% 30.47 in 10.0 mi North 3.5 mph - N/A   Clear
7:15 PM 5.4 °F -3.6 °F -12.5 °F 44% 30.46 in 10.0 mi North 4.6 mph - N/A   Clear
7:35 PM 5.2 °F -1.9 °F -12.1 °F 45% 30.46 in 10.0 mi North 3.5 mph - N/A   Clear
7:55 PM 5.9 °F - -12.5 °F 43% 30.46 in 10.0 mi Calm Calm - N/A   Clear
8:15 PM 5.4 °F - -12.3 °F 44% 30.46 in 10.0 mi Calm Calm - N/A   Clear
8:35 PM 6.6 °F - -12.5 °F 41% 30.47 in 10.0 mi Calm Calm - N/A   Clear
8:55 PM 6.4 °F - -12.3 °F 42% 30.47 in 10.0 mi Calm Calm - N/A   Clear
9:15 PM 5.4 °F - -12.3 °F 44% 30.47 in 10.0 mi Calm Calm - N/A   Clear
9:35 PM 5.9 °F - -12.3 °F 43% 30.47 in 10.0 mi Calm Calm - N/A   Clear
9:55 PM 5.0 °F - -12.3 °F 45% 30.47 in 10.0 mi Calm Calm - N/A   Clear
10:15 PM 5.4 °F - -12.1 °F 45% 30.47 in 10.0 mi Calm Calm - N/A   Clear
10:35 PM 5.0 °F - -12.1 °F 45% 30.47 in 10.0 mi Calm Calm - N/A   Clear
10:55 PM 5.0 °F - -12.1 °F 45% 30.46 in 10.0 mi Calm Calm - N/A   Clear
11:15 PM 4.8 °F -2.3 °F -12.1 °F 46% 30.46 in 10.0 mi SSE 3.5 mph - N/A   Clear
11:35 PM 2.5 °F -5.0 °F -11.9 °F 51% 30.46 in 10.0 mi South 3.5 mph - N/A   Clear
11:55 PM 1.4 °F -8.3 °F -12.3 °F 53% 30.47 in 10.0 mi SSW 4.6 mph - N/A   Clear